Time;durP1;ratioP1;P1;durP2;ratioP2;P2;SDS_P1;SDS_P2;PMS_P1;PMS_P2;Temp;Humidity;BMP_temperature;BMP_pressure;BME280_temperature;BME280_humidity;BME280_pressure;Samples;Min_cycle;Max_cycle;Signal;HPM_P1;HPM_P2
2023/10/27 00:02:23;;;;;;;44.45;28.33;;;12.20;99.90;;;;;;4916500;29;20036;-78
2023/10/27 00:04:49;;;;;;;44.10;26.77;;;12.20;99.90;;;;;;4916649;29;20039;-78
2023/10/27 00:07:14;;;;;;;43.72;27.90;;;12.20;99.90;;;;;;4899228;29;20064;-78
2023/10/27 00:09:40;;;;;;;46.40;28.05;;;12.20;99.90;;;;;;4899830;29;20032;-80
2023/10/27 00:12:06;;;;;;;45.28;30.15;;;12.20;99.90;;;;;;4916528;29;20083;-79
2023/10/27 00:14:33;;;;;;;48.30;29.92;;;12.10;99.90;;;;;;4899132;29;20123;-78
2023/10/27 00:16:59;;;;;;;46.30;29.00;;;12.20;99.90;;;;;;4883456;29;20032;-79
2023/10/27 00:19:24;;;;;;;50.13;29.27;;;12.20;99.90;;;;;;4896506;29;20036;-79
2023/10/27 00:21:50;;;;;;;48.22;29.55;;;12.20;99.90;;;;;;4897186;29;20037;-79
2023/10/27 00:24:15;;;;;;;50.33;30.80;;;12.20;99.90;;;;;;4897282;29;20095;-79
2023/10/27 00:26:41;;;;;;;47.58;30.05;;;12.20;99.90;;;;;;4896987;29;20036;-79
2023/10/27 00:29:07;;;;;;;57.45;32.03;;;12.20;99.90;;;;;;4897813;29;20057;-79
2023/10/27 00:31:33;;;;;;;52.10;30.85;;;12.30;99.90;;;;;;4881183;29;20418;-78
2023/10/27 00:33:58;;;;;;;52.25;31.27;;;12.20;99.90;;;;;;4881215;29;20363;-82
2023/10/27 00:36:24;;;;;;;56.92;32.28;;;12.30;99.90;;;;;;4884776;29;20035;-78
2023/10/27 00:38:50;;;;;;;59.10;33.10;;;12.30;99.90;;;;;;4901563;29;20370;-78
2023/10/27 00:41:16;;;;;;;59.00;33.15;;;12.30;99.90;;;;;;4902071;29;20043;-78
2023/10/27 00:43:42;;;;;;;59.35;33.60;;;12.30;99.90;;;;;;4901510;29;20040;-79
2023/10/27 00:46:08;;;;;;;61.33;33.45;;;12.20;99.90;;;;;;4869512;29;20131;-79
2023/10/27 00:48:34;;;;;;;59.10;32.70;;;12.20;99.90;;;;;;4901684;29;20413;-79
2023/10/27 00:51:02;;;;;;;56.60;31.80;;;12.20;99.90;;;;;;4884622;29;20036;-79
2023/10/27 00:53:28;;;;;;;57.75;32.40;;;12.30;99.90;;;;;;4901390;29;20072;-79
2023/10/27 00:55:55;;;;;;;63.72;34.67;;;12.30;99.90;;;;;;4901329;29;20045;-79
2023/10/27 00:58:22;;;;;;;61.05;33.20;;;12.20;99.90;;;;;;4884757;29;20037;-78
2023/10/27 01:00:47;;;;;;;64.47;33.70;;;12.20;99.90;;;;;;4901502;29;20040;-79
2023/10/27 01:03:13;;;;;;;62.92;33.75;;;12.20;99.90;;;;;;4901150;29;20385;-78
2023/10/27 01:05:38;;;;;;;62.72;33.53;;;12.20;99.90;;;;;;4869396;29;20136;-78
2023/10/27 01:08:04;;;;;;;65.63;34.83;;;12.20;99.90;;;;;;4901388;29;20033;-78
2023/10/27 01:10:30;;;;;;;59.33;34.10;;;12.20;99.90;;;;;;4901207;29;20033;-79
2023/10/27 01:12:56;;;;;;;64.97;34.00;;;12.20;99.90;;;;;;4901257;29;20170;-80
2023/10/27 01:15:22;;;;;;;63.30;34.28;;;12.20;99.90;;;;;;4854062;29;20036;-80
2023/10/27 01:17:48;;;;;;;65.20;34.05;;;12.20;99.90;;;;;;4885304;29;20037;-79
2023/10/27 01:20:13;;;;;;;58.92;34.13;;;12.20;99.90;;;;;;4901533;29;20523;-81
2023/10/27 01:22:47;;;;;;;61.35;32.42;;;12.20;99.90;;;;;;4902086;29;20072;-80
2023/10/27 01:25:13;;;;;;;62.38;34.88;;;12.20;99.90;;;;;;4901074;29;20036;-81
2023/10/27 01:27:39;;;;;;;60.15;33.13;;;12.10;99.90;;;;;;4884103;29;20568;-79
2023/10/27 01:30:05;;;;;;;65.47;35.03;;;12.10;99.90;;;;;;4900749;29;20040;-80
2023/10/27 01:32:30;;;;;;;60.20;34.13;;;12.10;99.90;;;;;;4900591;29;20051;-80
2023/10/27 01:34:56;;;;;;;56.08;32.60;;;12.10;99.90;;;;;;4883950;29;20028;-80
2023/10/27 01:37:22;;;;;;;61.90;34.33;;;12.20;99.90;;;;;;4901063;29;20454;-79
2023/10/27 01:39:48;;;;;;;67.68;36.63;;;12.20;99.90;;;;;;4900556;29;20041;-79
2023/10/27 01:42:14;;;;;;;62.78;34.88;;;12.10;99.90;;;;;;4883775;29;20035;-80
2023/10/27 01:44:40;;;;;;;60.03;33.47;;;12.10;99.90;;;;;;4900141;29;20032;-79
2023/10/27 01:47:05;;;;;;;59.63;33.83;;;12.10;99.90;;;;;;4883789;29;20039;-79
2023/10/27 01:49:31;;;;;;;56.78;30.92;;;12.10;99.90;;;;;;4900157;29;20457;-79
2023/10/27 01:51:56;;;;;;;61.72;33.88;;;12.20;99.90;;;;;;4883770;29;20386;-79
2023/10/27 01:54:22;;;;;;;55.90;32.15;;;12.20;99.90;;;;;;4900282;29;20366;-79
2023/10/27 01:56:48;;;;;;;53.92;32.13;;;12.30;99.90;;;;;;4884174;29;20043;-80
2023/10/27 01:59:13;;;;;;;57.53;31.45;;;12.30;99.90;;;;;;4900239;29;20032;-79
2023/10/27 02:01:39;;;;;;;56.13;32.65;;;12.40;99.90;;;;;;4883433;29;20044;-79
2023/10/27 02:04:05;;;;;;;61.42;34.05;;;12.40;99.90;;;;;;4900557;29;20320;-79
2023/10/27 02:06:30;;;;;;;61.42;34.45;;;12.40;99.90;;;;;;4883472;29;20116;-79
2023/10/27 02:08:56;;;;;;;59.55;33.80;;;12.40;99.90;;;;;;4883169;29;20363;-78
2023/10/27 02:11:23;;;;;;;57.45;33.35;;;12.40;99.90;;;;;;4900129;29;20029;-78
2023/10/27 02:13:49;;;;;;;65.05;34.92;;;12.40;99.90;;;;;;4900013;29;20033;-78
2023/10/27 02:16:15;;;;;;;57.97;32.50;;;12.40;99.90;;;;;;4899961;29;20120;-78
2023/10/27 02:18:40;;;;;;;65.13;35.17;;;12.50;99.90;;;;;;4899990;29;20274;-78
2023/10/27 02:21:06;;;;;;;61.67;34.75;;;12.40;99.90;;;;;;4900201;29;20109;-78
2023/10/27 02:23:32;;;;;;;53.50;31.92;;;12.40;99.90;;;;;;4899332;29;20052;-78
2023/10/27 02:25:58;;;;;;;55.92;31.70;;;12.40;99.90;;;;;;4899843;29;20029;-78
2023/10/27 02:28:24;;;;;;;61.20;33.00;;;12.30;99.90;;;;;;4882732;29;20042;-78
2023/10/27 02:30:49;;;;;;;55.88;33.75;;;12.40;99.90;;;;;;4899733;29;20028;-79
2023/10/27 02:33:16;;;;;;;52.60;31.63;;;12.40;99.90;;;;;;4899628;29;20469;-78
2023/10/27 02:35:41;;;;;;;55.65;31.15;;;12.40;99.90;;;;;;4882675;29;20099;-79
2023/10/27 02:38:07;;;;;;;53.53;31.52;;;12.40;99.90;;;;;;4899559;29;20036;-78
2023/10/27 02:40:35;;;;;;;54.65;30.45;;;12.40;99.90;;;;;;4899487;29;20037;-78
2023/10/27 02:43:00;;;;;;;50.70;29.13;;;12.40;99.90;;;;;;4899434;29;20481;-78
2023/10/27 02:45:26;;;;;;;49.35;28.02;;;12.40;99.90;;;;;;4899734;29;20037;-79
2023/10/27 02:47:51;;;;;;;46.50;28.00;;;12.40;99.90;;;;;;4882818;29;20037;-79
2023/10/27 02:50:17;;;;;;;48.38;28.48;;;12.50;99.90;;;;;;4866888;29;20090;-78
2023/10/27 02:52:43;;;;;;;47.47;27.60;;;12.40;99.90;;;;;;4899373;29;20116;-78
2023/10/27 02:55:09;;;;;;;43.58;26.67;;;12.50;99.90;;;;;;4882982;29;20087;-79
2023/10/27 02:57:35;;;;;;;45.63;28.50;;;12.50;99.90;;;;;;4898360;29;20553;-78
2023/10/27 03:00:00;;;;;;;48.00;28.85;;;12.50;99.90;;;;;;4899182;29;20037;-78
2023/10/27 03:02:27;;;;;;;45.67;26.45;;;12.40;99.90;;;;;;4898706;29;20496;-78
2023/10/27 03:04:55;;;;;;;43.10;26.75;;;12.40;99.90;;;;;;4899410;29;20036;-79
2023/10/27 03:07:21;;;;;;;43.70;27.92;;;12.40;99.90;;;;;;4898980;29;20061;-78
2023/10/27 03:09:46;;;;;;;45.92;26.50;;;12.50;99.90;;;;;;4898977;29;20131;-77
2023/10/27 03:12:12;;;;;;;40.63;25.58;;;12.40;99.90;;;;;;4866693;29;20493;-77
2023/10/27 03:14:38;;;;;;;44.90;26.60;;;12.40;99.90;;;;;;4882746;29;20039;-77
2023/10/27 03:17:04;;;;;;;42.92;26.05;;;12.40;99.90;;;;;;4882032;29;20393;-77
2023/10/27 03:19:29;;;;;;;42.70;25.27;;;12.40;99.90;;;;;;4885271;29;20120;-77
2023/10/27 03:21:56;;;;;;;44.22;25.17;;;12.40;99.90;;;;;;4901134;29;20337;-77
2023/10/27 03:24:22;;;;;;;41.83;25.30;;;12.40;99.90;;;;;;4901063;29;20040;-77
2023/10/27 03:26:47;;;;;;;41.17;24.98;;;12.40;99.90;;;;;;4917929;29;20063;-77
2023/10/27 03:29:13;;;;;;;42.17;23.92;;;12.40;99.90;;;;;;4901407;29;20036;-76
2023/10/27 03:31:39;;;;;;;37.67;22.40;;;12.40;99.90;;;;;;4900631;29;20044;-77
2023/10/27 03:34:04;;;;;;;41.60;24.17;;;12.50;99.90;;;;;;4900701;29;20080;-77
2023/10/27 03:36:30;;;;;;;43.35;25.38;;;12.50;99.90;;;;;;4900382;29;20141;-77
2023/10/27 03:38:55;;;;;;;40.30;24.55;;;12.50;99.90;;;;;;4901496;29;20032;-77
2023/10/27 03:41:21;;;;;;;36.08;23.23;;;12.50;99.90;;;;;;4900817;29;20528;-77
2023/10/27 03:43:47;;;;;;;43.00;25.25;;;12.50;99.90;;;;;;4918086;29;20036;-77
2023/10/27 03:46:13;;;;;;;40.65;25.52;;;12.50;99.90;;;;;;4917133;29;20075;-77
2023/10/27 03:48:39;;;;;;;43.15;24.92;;;12.40;99.90;;;;;;4916923;29;20404;-77
2023/10/27 03:51:05;;;;;;;46.45;26.75;;;12.40;99.90;;;;;;4917591;29;20036;-77
2023/10/27 03:53:32;;;;;;;46.20;27.10;;;12.40;99.90;;;;;;4917187;29;20481;-77
2023/10/27 03:55:57;;;;;;;43.05;25.48;;;12.40;99.90;;;;;;4900257;29;20028;-77
2023/10/27 03:58:23;;;;;;;41.45;24.70;;;12.30;99.90;;;;;;4900220;29;20103;-77
2023/10/27 04:00:49;;;;;;;44.08;25.05;;;12.40;99.90;;;;;;4884651;29;20035;-77
2023/10/27 04:03:14;;;;;;;40.95;23.65;;;12.40;99.90;;;;;;4917179;29;20037;-77
2023/10/27 04:05:41;;;;;;;42.50;25.23;;;12.40;99.90;;;;;;4916807;29;20115;-77
2023/10/27 04:08:06;;;;;;;40.20;24.58;;;12.40;99.90;;;;;;4900716;29;20028;-77
2023/10/27 04:10:36;;;;;;;39.00;24.60;;;12.30;99.90;;;;;;4917201;29;20469;-77
2023/10/27 04:13:02;;;;;;;37.83;22.58;;;12.30;99.90;;;;;;4917077;29;20032;-77
2023/10/27 04:15:28;;;;;;;35.72;21.52;;;12.20;99.90;;;;;;4917054;29;20058;-77
2023/10/27 04:17:54;;;;;;;36.42;22.45;;;12.20;99.90;;;;;;4884273;29;20126;-77
2023/10/27 04:20:19;;;;;;;32.60;19.77;;;12.20;99.90;;;;;;4906787;29;20057;-77
2023/10/27 04:22:45;;;;;;;29.73;19.25;;;12.20;99.90;;;;;;4881771;29;20385;-77
2023/10/27 04:25:12;;;;;;;27.17;17.73;;;12.20;99.90;;;;;;4866390;29;20445;-77
2023/10/27 04:27:38;;;;;;;27.45;17.38;;;12.20;99.90;;;;;;4897967;29;20139;-76
2023/10/27 04:30:07;;;;;;;29.55;18.20;;;12.20;99.90;;;;;;4897929;29;20417;-77
2023/10/27 04:32:39;;;;;;;24.85;16.58;;;12.30;99.90;;;;;;4881652;29;20343;-78
2023/10/27 04:35:05;;;;;;;27.02;16.77;;;12.30;99.90;;;;;;4881156;29;20032;-77
2023/10/27 04:37:32;;;;;;;24.45;16.08;;;12.30;99.90;;;;;;4898177;29;20032;-77
2023/10/27 04:39:58;;;;;;;24.42;15.82;;;12.20;99.90;;;;;;4897905;29;20079;-77
2023/10/27 04:42:24;;;;;;;26.05;15.63;;;12.20;99.90;;;;;;4865468;29;20044;-77
2023/10/27 04:44:50;;;;;;;27.60;16.13;;;12.20;99.90;;;;;;4880923;29;20033;-77
2023/10/27 04:47:15;;;;;;;22.75;14.93;;;12.20;99.90;;;;;;4898048;29;20036;-78
2023/10/27 04:49:41;;;;;;;22.70;14.75;;;12.20;99.90;;;;;;4880980;29;20041;-78
2023/10/27 04:52:06;;;;;;;24.80;16.40;;;12.20;99.90;;;;;;4897681;29;20143;-77
2023/10/27 04:54:34;;;;;;;24.90;15.48;;;12.20;99.90;;;;;;4897591;29;20036;-77
2023/10/27 04:57:03;;;;;;;21.27;14.52;;;12.10;99.90;;;;;;4881480;29;20029;-78
2023/10/27 04:59:32;;;;;;;22.10;14.40;;;12.10;99.90;;;;;;4865481;29;20127;-78
2023/10/27 05:01:58;;;;;;;20.38;13.63;;;12.10;99.90;;;;;;4897366;29;20458;-78
2023/10/27 05:04:24;;;;;;;19.55;13.48;;;12.10;99.90;;;;;;4897621;29;20458;-78
2023/10/27 05:06:50;;;;;;;19.85;13.45;;;12.10;99.90;;;;;;4881035;29;20040;-78
2023/10/27 05:09:18;;;;;;;21.77;14.20;;;12.10;99.90;;;;;;4881136;29;20480;-77
2023/10/27 05:11:47;;;;;;;19.25;12.80;;;12.00;99.90;;;;;;4897493;29;20044;-77
2023/10/27 05:14:13;;;;;;;19.33;13.45;;;12.00;99.90;;;;;;4880601;29;20047;-78
2023/10/27 05:16:39;;;;;;;19.88;12.55;;;12.00;99.90;;;;;;4897749;29;20024;-78
2023/10/27 05:19:05;;;;;;;17.58;12.60;;;12.00;99.90;;;;;;4865724;29;20041;-78
2023/10/27 05:21:31;;;;;;;21.38;13.32;;;12.00;99.90;;;;;;4901533;29;20107;-78
2023/10/27 05:23:58;;;;;;;18.67;12.23;;;12.00;99.90;;;;;;4919587;29;20112;-78
2023/10/27 05:26:24;;;;;;;15.88;11.05;;;12.00;99.90;;;;;;4919751;29;20035;-79
2023/10/27 05:28:50;;;;;;;19.35;12.82;;;12.00;99.90;;;;;;4887409;29;20100;-79
2023/10/27 05:31:16;;;;;;;16.60;11.07;;;12.10;99.90;;;;;;4919598;29;20392;-78
2023/10/27 05:33:41;;;;;;;17.08;10.88;;;12.10;99.90;;;;;;4919463;29;20047;-79
2023/10/27 05:36:07;;;;;;;15.82;11.30;;;12.10;99.90;;;;;;4919850;29;20046;-78
2023/10/27 05:38:33;;;;;;;17.60;11.48;;;12.10;99.90;;;;;;4919435;29;20040;-78
2023/10/27 05:40:58;;;;;;;13.85;10.57;;;12.20;99.90;;;;;;4919625;29;20028;-78
2023/10/27 05:43:25;;;;;;;16.10;10.98;;;12.20;99.90;;;;;;4902369;29;20119;-78
2023/10/27 05:45:51;;;;;;;16.65;11.65;;;12.20;99.90;;;;;;4902281;29;20040;-77
2023/10/27 05:48:16;;;;;;;15.43;10.77;;;12.20;99.90;;;;;;4886535;29;20087;-78
2023/10/27 05:50:42;;;;;;;15.25;10.20;;;12.20;99.90;;;;;;4902056;29;20035;-78
2023/10/27 05:53:07;;;;;;;13.52;9.85;;;12.20;99.90;;;;;;4902193;29;20064;-78
2023/10/27 05:55:33;;;;;;;16.27;11.13;;;12.20;99.90;;;;;;4886549;29;20035;-78
2023/10/27 05:57:59;;;;;;;14.50;10.73;;;12.30;99.90;;;;;;4919523;29;20469;-78
2023/10/27 06:00:24;;;;;;;13.40;10.13;;;12.20;99.90;;;;;;4919330;29;20028;-78
2023/10/27 06:02:52;;;;;;;14.35;10.25;;;12.30;99.90;;;;;;4905040;29;20036;-77
2023/10/27 06:05:19;;;;;;;17.23;10.73;;;12.30;99.90;;;;;;4925129;29;20039;-77
2023/10/27 06:07:45;;;;;;;16.63;10.63;;;12.30;99.90;;;;;;4922603;29;20035;-77
2023/10/27 06:10:11;;;;;;;13.75;9.98;;;12.30;99.90;;;;;;4919555;29;20028;-78
2023/10/27 06:12:37;;;;;;;13.73;9.30;;;12.40;99.90;;;;;;4918956;29;20035;-79
2023/10/27 06:15:03;;;;;;;13.73;9.07;;;12.40;99.90;;;;;;4918987;29;20461;-77
2023/10/27 06:17:29;;;;;;;13.82;9.65;;;12.40;99.90;;;;;;4901722;29;20540;-74
2023/10/27 06:19:55;;;;;;;14.55;10.68;;;12.40;99.90;;;;;;4912307;29;20053;-75
2023/10/27 06:22:21;;;;;;;15.05;10.57;;;12.40;99.90;;;;;;4882814;29;20033;-75
2023/10/27 06:24:47;;;;;;;13.05;10.00;;;12.30;99.90;;;;;;4899656;29;20056;-75
2023/10/27 06:27:13;;;;;;;12.40;9.68;;;12.20;99.90;;;;;;4882783;29;20525;-75
2023/10/27 06:29:39;;;;;;;11.18;8.55;;;12.10;99.90;;;;;;4882829;29;20048;-75
2023/10/27 06:32:05;;;;;;;12.13;7.95;;;12.20;99.90;;;;;;4882299;29;20032;-76
2023/10/27 06:34:31;;;;;;;11.50;7.60;;;12.20;99.90;;;;;;4867749;29;20362;-76
2023/10/27 06:36:58;;;;;;;9.10;7.68;;;12.30;99.90;;;;;;4882285;29;20029;-79
2023/10/27 06:39:24;;;;;;;9.57;7.13;;;12.40;99.90;;;;;;4899487;29;20036;-76
2023/10/27 06:41:50;;;;;;;11.95;8.50;;;12.30;99.90;;;;;;4899054;29;20465;-76
2023/10/27 06:44:16;;;;;;;10.15;7.72;;;12.30;99.90;;;;;;4899281;29;20064;-76
2023/10/27 06:46:44;;;;;;;10.68;7.63;;;12.40;99.90;;;;;;4899134;29;20437;-77
2023/10/27 06:49:10;;;;;;;14.30;8.80;;;12.40;99.90;;;;;;4898775;29;20037;-77
2023/10/27 06:51:35;;;;;;;12.18;9.30;;;12.40;99.90;;;;;;4899275;29;20045;-77
2023/10/27 06:54:01;;;;;;;11.10;8.15;;;12.40;99.90;;;;;;4866871;29;20036;-77
2023/10/27 06:56:28;;;;;;;12.38;9.18;;;12.40;99.90;;;;;;4899361;29;20413;-76
2023/10/27 06:58:54;;;;;;;10.18;8.27;;;12.40;99.90;;;;;;4851555;29;20100;-79
2023/10/27 07:01:19;;;;;;;11.32;9.00;;;12.40;99.90;;;;;;4882266;29;20075;-79
2023/10/27 07:03:45;;;;;;;12.02;9.60;;;12.40;99.90;;;;;;4881890;29;20029;-80
2023/10/27 07:06:11;;;;;;;11.15;8.88;;;12.40;99.90;;;;;;4866541;29;20127;-76
2023/10/27 07:08:37;;;;;;;12.35;9.48;;;12.40;99.90;;;;;;4898961;29;20036;-76
2023/10/27 07:11:03;;;;;;;11.25;9.10;;;12.40;99.90;;;;;;4882038;29;20430;-76
2023/10/27 07:13:30;;;;;;;12.75;9.07;;;12.40;99.90;;;;;;4898906;29;20075;-77
2023/10/27 07:15:56;;;;;;;11.27;8.80;;;12.40;99.90;;;;;;4898894;29;20029;-77
2023/10/27 07:18:22;;;;;;;8.77;7.38;;;12.40;99.90;;;;;;4898649;29;20055;-77
2023/10/27 07:20:48;;;;;;;10.10;8.30;;;12.50;99.90;;;;;;4899035;29;20187;-77
2023/10/27 07:23:16;;;;;;;11.90;9.15;;;12.50;99.90;;;;;;4898071;29;20167;-77
2023/10/27 07:25:42;;;;;;;11.38;8.45;;;12.50;99.90;;;;;;4898513;29;20037;-77
2023/10/27 07:28:08;;;;;;;12.77;9.15;;;12.50;99.90;;;;;;4898027;29;20037;-77
2023/10/27 07:30:34;;;;;;;12.73;9.52;;;12.50;99.90;;;;;;4898534;29;20041;-77
2023/10/27 07:33:00;;;;;;;9.43;7.97;;;12.50;99.90;;;;;;4882112;29;20095;-76
2023/10/27 07:35:26;;;;;;;8.88;7.68;;;12.40;99.90;;;;;;4881554;29;20029;-76
2023/10/27 07:37:52;;;;;;;10.73;8.02;;;12.40;99.90;;;;;;4897913;29;20549;-77
2023/10/27 07:40:19;;;;;;;10.55;8.70;;;12.50;99.90;;;;;;4881252;29;20036;-77
2023/10/27 07:42:45;;;;;;;10.50;8.60;;;12.50;99.90;;;;;;4865812;29;20032;-77
2023/10/27 07:45:10;;;;;;;10.05;8.73;;;12.60;99.90;;;;;;4898161;29;20035;-76
2023/10/27 07:47:36;;;;;;;12.23;9.68;;;12.60;99.90;;;;;;4898531;29;20025;-77
2023/10/27 07:50:02;;;;;;;10.23;8.52;;;12.60;99.90;;;;;;4881305;29;20032;-77
2023/10/27 07:52:28;;;;;;;12.00;9.65;;;12.60;99.90;;;;;;4881183;29;20052;-77
2023/10/27 07:54:54;;;;;;;11.23;8.30;;;12.60;99.90;;;;;;4865836;29;20040;-77
2023/10/27 07:57:21;;;;;;;11.70;9.63;;;12.70;99.90;;;;;;4898266;29;20029;-77
2023/10/27 07:59:47;;;;;;;12.65;9.95;;;12.60;99.90;;;;;;4880875;29;20025;-77
2023/10/27 08:02:12;;;;;;;13.20;10.27;;;12.70;99.90;;;;;;4898258;29;20040;-77
2023/10/27 08:04:38;;;;;;;13.20;10.32;;;12.60;99.90;;;;;;4897583;29;20059;-76
2023/10/27 08:07:04;;;;;;;13.70;10.55;;;12.60;99.90;;;;;;4897873;29;20040;-76
2023/10/27 08:09:31;;;;;;;13.95;10.60;;;12.60;99.90;;;;;;4881507;29;20064;-76
2023/10/27 08:11:57;;;;;;;13.25;9.32;;;12.60;99.90;;;;;;4898097;29;20406;-75
2023/10/27 08:14:23;;;;;;;13.65;10.77;;;12.60;99.90;;;;;;4897657;29;20037;-76
2023/10/27 08:16:49;;;;;;;10.35;8.93;;;12.70;99.90;;;;;;4865756;29;20239;-75
2023/10/27 08:19:15;;;;;;;9.25;8.20;;;12.70;99.90;;;;;;4897674;29;20025;-75
2023/10/27 08:21:41;;;;;;;13.98;10.40;;;12.70;99.90;;;;;;4882019;29;20088;-75
2023/10/27 08:24:07;;;;;;;13.73;9.90;;;12.70;99.90;;;;;;4881201;29;20391;-75
2023/10/27 08:26:33;;;;;;;12.98;10.40;;;12.70;99.90;;;;;;4881751;29;20092;-75
2023/10/27 08:28:59;;;;;;;13.95;11.70;;;12.70;99.90;;;;;;4898784;29;20025;-75
2023/10/27 08:31:25;;;;;;;12.73;10.10;;;12.70;99.90;;;;;;4898402;29;20052;-80
2023/10/27 08:33:50;;;;;;;13.45;11.20;;;12.60;99.90;;;;;;4882342;29;20143;-77
2023/10/27 08:36:16;;;;;;;13.98;9.23;;;12.60;99.90;;;;;;4881467;29;20574;-77
2023/10/27 08:38:42;;;;;;;13.98;10.70;;;12.60;99.90;;;;;;4898230;29;20029;-76
2023/10/27 08:41:08;;;;;;;15.68;11.73;;;12.60;99.90;;;;;;4881632;29;20032;-75
2023/10/27 08:43:34;;;;;;;13.07;10.25;;;12.50;99.90;;;;;;4897712;29;20088;-75
2023/10/27 08:46:03;;;;;;;14.00;10.57;;;12.60;99.90;;;;;;4898893;29;20103;-74
2023/10/27 08:48:30;;;;;;;12.20;9.02;;;12.60;99.90;;;;;;4898553;29;20067;-75
2023/10/27 08:51:00;;;;;;;13.77;10.73;;;12.60;99.90;;;;;;4881378;29;20056;-75
2023/10/27 08:53:26;;;;;;;12.18;10.05;;;12.70;99.90;;;;;;4898120;29;20112;-77
2023/10/27 08:55:52;;;;;;;10.75;8.27;;;12.70;99.90;;;;;;4866690;29;20132;-76
2023/10/27 08:58:17;;;;;;;15.52;12.57;;;12.70;99.90;;;;;;4884551;29;20061;-77
2023/10/27 09:00:47;;;;;;;14.45;11.25;;;12.70;99.90;;;;;;4868953;29;20439;-78
2023/10/27 09:03:17;;;;;;;11.07;9.63;;;12.70;99.90;;;;;;4901563;29;20028;-79
2023/10/27 09:05:44;;;;;;;12.55;10.10;;;12.70;99.90;;;;;;4900771;29;20116;-78
2023/10/27 09:08:10;;;;;;;15.35;10.80;;;12.70;99.90;;;;;;4900811;29;20075;-78
2023/10/27 09:10:37;;;;;;;11.70;9.15;;;12.70;99.90;;;;;;4868866;29;20063;-77
2023/10/27 09:13:05;;;;;;;13.73;9.80;;;12.70;99.90;;;;;;4884330;29;20037;-77
2023/10/27 09:15:43;;;;;;;10.32;8.77;;;12.70;99.90;;;;;;4884473;29;20033;-78
2023/10/27 09:18:09;;;;;;;10.05;8.30;;;12.70;99.90;;;;;;4901309;29;20044;-77
2023/10/27 09:20:47;;;;;;;9.18;7.60;;;12.80;99.90;;;;;;4901304;29;20394;-77
2023/10/27 09:23:12;;;;;;;10.27;8.85;;;12.90;99.90;;;;;;4884471;29;20437;-77
2023/10/27 09:25:38;;;;;;;9.48;8.45;;;12.90;99.90;;;;;;4884060;29;20037;-77
2023/10/27 09:28:05;;;;;;;81.72;19.58;;;12.90;99.90;;;;;;4884612;29;20037;-77
2023/10/27 09:30:33;;;;;;;31.70;11.93;;;12.90;99.90;;;;;;4901029;29;20124;-77
2023/10/27 09:33:18;;;;;;;10.35;8.07;;;13.00;99.90;;;;;;4900752;29;20044;-74
2023/10/27 09:35:46;;;;;;;9.80;7.70;;;12.90;99.90;;;;;;4884579;29;20028;-77
2023/10/27 09:38:13;;;;;;;11.18;7.35;;;12.80;99.90;;;;;;4900636;29;20043;-76
2023/10/27 09:40:40;;;;;;;8.65;7.53;;;12.80;99.90;;;;;;4900538;29;20025;-77
2023/10/27 09:43:19;;;;;;;28.60;10.30;;;12.70;99.90;;;;;;4883878;29;20131;-77
2023/10/27 09:45:55;;;;;;;10.93;7.72;;;12.70;99.90;;;;;;4900722;29;20045;-77
2023/10/27 09:48:27;;;;;;;9.30;7.82;;;12.70;99.90;;;;;;4901242;29;20157;-77
2023/10/27 09:51:01;;;;;;;10.77;8.38;;;12.70;99.90;;;;;;4900729;29;20040;-77
2023/10/27 09:53:30;;;;;;;13.45;8.27;;;12.70;99.90;;;;;;4883938;29;20036;-77
2023/10/27 09:56:00;;;;;;;30.33;11.63;;;12.70;99.90;;;;;;4900616;29;20021;-77
2023/10/27 09:58:31;;;;;;;18.08;9.60;;;12.70;99.90;;;;;;4900161;29;20059;-77
2023/10/27 10:00:58;;;;;;;30.73;11.75;;;12.80;99.90;;;;;;4900573;29;20052;-76
2023/10/27 10:03:27;;;;;;;17.60;8.93;;;12.90;99.90;;;;;;4867962;29;20035;-76
2023/10/27 10:06:21;;;;;;;88.97;18.98;;;12.90;99.90;;;;;;4900192;29;20028;-77
2023/10/27 10:09:09;;;;;;;18.85;8.85;;;13.10;99.90;;;;;;4900186;29;20025;-76
2023/10/27 10:11:49;;;;;;;16.90;9.18;;;13.10;99.90;;;;;;4900395;29;20028;-77
2023/10/27 10:14:38;;;;;;;10.73;8.35;;;13.10;99.90;;;;;;4883591;29;20029;-77
2023/10/27 10:17:06;;;;;;;9.60;8.00;;;13.00;99.90;;;;;;4883475;29;20024;-77
2023/10/27 10:19:58;;;;;;;21.35;9.77;;;13.00;99.90;;;;;;4868187;29;20150;-77
2023/10/27 10:22:41;;;;;;;10.60;8.23;;;13.00;99.90;;;;;;4895843;29;20462;-77
2023/10/27 10:25:19;;;;;;;10.15;8.73;;;13.00;99.90;;;;;;4899904;29;20063;-77
2023/10/27 10:28:07;;;;;;;13.00;8.63;;;12.90;99.90;;;;;;4883030;29;20024;-78
2023/10/27 10:30:43;;;;;;;10.40;8.75;;;12.90;99.90;;;;;;4899901;29;20342;-76
2023/10/27 10:33:26;;;;;;;48.08;13.50;;;13.00;99.90;;;;;;4899758;29;20044;-77
2023/10/27 10:36:14;;;;;;;10.27;9.02;;;13.10;99.90;;;;;;4899606;29;20103;-77
2023/10/27 10:39:04;;;;;;;10.90;9.48;;;13.10;99.90;;;;;;4901832;29;20055;-77
2023/10/27 10:41:47;;;;;;;10.27;8.93;;;13.10;99.90;;;;;;4907783;29;20032;-78
2023/10/27 10:44:14;;;;;;;13.00;9.50;;;13.10;99.90;;;;;;4889625;29;20119;-77
2023/10/27 10:46:41;;;;;;;31.55;13.15;;;13.20;99.90;;;;;;4905895;29;20041;-77
2023/10/27 10:49:08;;;;;;;35.33;12.38;;;13.30;99.90;;;;;;4907352;29;20044;-78
2023/10/27 10:51:37;;;;;;;39.00;14.00;;;13.40;99.90;;;;;;4904855;29;20095;-78
2023/10/27 10:54:12;;;;;;;33.63;12.68;;;13.40;99.90;;;;;;4903771;29;20414;-77
2023/10/27 10:56:38;;;;;;;33.17;12.25;;;13.50;99.90;;;;;;4885605;29;20028;-78
2023/10/27 10:59:04;;;;;;;41.83;12.75;;;13.50;99.90;;;;;;4885068;29;20076;-77
2023/10/27 11:01:30;;;;;;;23.63;10.57;;;13.60;99.90;;;;;;4900603;29;20043;-78
2023/10/27 11:03:57;;;;;;;22.42;10.43;;;13.70;99.90;;;;;;4882818;29;20115;-77
2023/10/27 11:06:27;;;;;;;19.85;10.02;;;13.80;99.90;;;;;;4866781;29;20119;-77
2023/10/27 11:08:54;;;;;;;20.17;10.05;;;13.80;99.90;;;;;;4899509;29;20047;-77
2023/10/27 11:11:20;;;;;;;16.33;8.35;;;13.90;99.90;;;;;;4882069;29;20040;-78
2023/10/27 11:13:47;;;;;;;28.08;9.85;;;13.90;99.90;;;;;;4898993;29;20063;-78
2023/10/27 11:16:24;;;;;;;15.68;9.23;;;13.80;99.90;;;;;;4881830;29;20029;-78
2023/10/27 11:19:02;;;;;;;11.52;8.13;;;13.90;99.90;;;;;;4851607;29;20401;-77
2023/10/27 11:21:30;;;;;;;11.68;8.13;;;13.90;99.90;;;;;;4901038;29;20048;-78
2023/10/27 11:23:56;;;;;;;15.65;10.10;;;13.90;99.90;;;;;;4917370;29;20042;-78
2023/10/27 11:26:26;;;;;;;38.78;12.05;;;13.90;99.90;;;;;;4900572;29;20047;-77
2023/10/27 11:28:55;;;;;;;27.88;10.80;;;13.80;99.90;;;;;;4917381;29;20032;-77
2023/10/27 11:31:26;;;;;;;12.80;7.65;;;13.90;99.90;;;;;;4917281;29;20036;-77
2023/10/27 11:33:58;;;;;;;27.23;10.07;;;14.00;99.90;;;;;;4900428;29;20036;-77
2023/10/27 11:36:40;;;;;;;17.38;9.00;;;14.00;99.90;;;;;;4917323;29;20028;-77
2023/10/27 11:39:23;;;;;;;11.85;10.10;;;14.10;99.90;;;;;;4917784;29;20038;-77
2023/10/27 11:41:54;;;;;;;12.07;7.40;;;14.00;99.90;;;;;;4917229;29;20039;-77
2023/10/27 11:44:21;;;;;;;17.83;7.85;;;14.00;99.90;;;;;;4900140;29;20040;-78
2023/10/27 11:46:49;;;;;;;9.45;5.93;;;14.00;99.90;;;;;;4917444;29;20063;-77
2023/10/27 11:49:15;;;;;;;6.88;5.28;;;14.10;99.90;;;;;;4885215;29;20389;-78
2023/10/27 11:51:48;;;;;;;24.17;8.00;;;14.10;99.90;;;;;;4916780;29;20032;-78
2023/10/27 11:54:17;;;;;;;16.05;7.25;;;14.10;99.90;;;;;;4917462;29;20095;-78
2023/10/27 11:56:44;;;;;;;9.30;5.43;;;14.20;99.90;;;;;;4899974;29;20032;-78
2023/10/27 11:59:10;;;;;;;8.35;6.05;;;14.20;99.90;;;;;;4884595;29;20030;-78
2023/10/27 12:01:39;;;;;;;13.98;6.22;;;14.20;99.90;;;;;;4899975;29;20036;-78
2023/10/27 12:04:07;;;;;;;20.27;7.72;;;14.20;99.90;;;;;;4916725;29;20051;-78
2023/10/27 12:06:34;;;;;;;11.40;6.53;;;14.20;99.90;;;;;;4916838;29;20033;-78
2023/10/27 12:09:00;;;;;;;13.07;6.47;;;14.20;99.90;;;;;;4884455;29;20036;-78
2023/10/27 12:11:27;;;;;;;10.68;5.47;;;14.30;99.90;;;;;;4916629;29;20143;-78
2023/10/27 12:13:53;;;;;;;8.63;5.18;;;14.30;99.90;;;;;;4899521;29;20510;-78
2023/10/27 12:16:19;;;;;;;10.43;5.25;;;14.30;99.90;;;;;;4899687;29;20122;-77
2023/10/27 12:18:45;;;;;;;11.18;5.50;;;14.30;99.90;;;;;;4916746;29;20036;-78
2023/10/27 12:21:11;;;;;;;8.98;4.85;;;14.30;99.90;;;;;;4902347;29;20056;-77
2023/10/27 12:23:36;;;;;;;13.57;5.82;;;14.30;99.90;;;;;;4881294;29;20538;-77
2023/10/27 12:26:03;;;;;;;7.53;5.65;;;14.30;99.90;;;;;;4898569;29;20064;-78
2023/10/27 12:28:29;;;;;;;14.65;6.22;;;14.30;99.90;;;;;;4897935;29;20029;-75
2023/10/27 12:30:57;;;;;;;15.60;6.85;;;14.30;99.90;;;;;;4899064;29;20029;-78
2023/10/27 12:33:23;;;;;;;9.82;5.40;;;14.30;99.90;;;;;;4901749;29;20025;-78